sensor_id;sensor_type;location;lat;lon;timestamp;P1;durP1;ratioP1;P2;durP2;ratioP2
58242;SDS011;50118;53.232;8.252;2023-04-25T00:01:13;25.70;;;5.40;;
58242;SDS011;50118;53.232;8.252;2023-04-25T00:03:39;23.77;;;5.20;;
58242;SDS011;50118;53.232;8.252;2023-04-25T00:06:05;18.00;;;4.60;;
58242;SDS011;50118;53.232;8.252;2023-04-25T00:08:31;19.27;;;5.22;;
58242;SDS011;50118;53.232;8.252;2023-04-25T00:10:57;25.80;;;5.45;;
58242;SDS011;50118;53.232;8.252;2023-04-25T00:13:23;22.98;;;4.97;;
58242;SDS011;50118;53.232;8.252;2023-04-25T00:15:50;26.88;;;5.28;;
58242;SDS011;50118;53.232;8.252;2023-04-25T00:18:16;23.73;;;5.25;;
58242;SDS011;50118;53.232;8.252;2023-04-25T00:20:42;21.73;;;5.18;;
58242;SDS011;50118;53.232;8.252;2023-04-25T00:23:11;19.33;;;5.10;;
58242;SDS011;50118;53.232;8.252;2023-04-25T00:25:42;23.38;;;5.22;;
58242;SDS011;50118;53.232;8.252;2023-04-25T00:28:17;27.60;;;5.50;;
58242;SDS011;50118;53.232;8.252;2023-04-25T00:30:42;18.02;;;4.30;;
58242;SDS011;50118;53.232;8.252;2023-04-25T00:33:08;15.05;;;4.75;;
58242;SDS011;50118;53.232;8.252;2023-04-25T00:35:35;18.10;;;4.88;;
58242;SDS011;50118;53.232;8.252;2023-04-25T00:38:01;22.10;;;4.85;;
58242;SDS011;50118;53.232;8.252;2023-04-25T00:40:26;19.90;;;4.50;;
58242;SDS011;50118;53.232;8.252;2023-04-25T00:42:52;16.73;;;5.05;;
58242;SDS011;50118;53.232;8.252;2023-04-25T00:45:18;19.45;;;4.70;;
58242;SDS011;50118;53.232;8.252;2023-04-25T00:47:44;22.00;;;5.53;;
58242;SDS011;50118;53.232;8.252;2023-04-25T00:50:10;13.00;;;4.20;;
58242;SDS011;50118;53.232;8.252;2023-04-25T00:52:41;20.65;;;5.22;;
58242;SDS011;50118;53.232;8.252;2023-04-25T00:55:09;22.73;;;4.97;;
58242;SDS011;50118;53.232;8.252;2023-04-25T00:57:35;22.10;;;4.93;;
58242;SDS011;50118;53.232;8.252;2023-04-25T01:00:02;20.20;;;4.35;;
58242;SDS011;50118;53.232;8.252;2023-04-25T01:02:30;20.85;;;4.82;;
58242;SDS011;50118;53.232;8.252;2023-04-25T01:04:57;19.88;;;5.05;;
58242;SDS011;50118;53.232;8.252;2023-04-25T01:07:22;18.77;;;4.90;;
58242;SDS011;50118;53.232;8.252;2023-04-25T01:09:48;19.95;;;4.97;;
58242;SDS011;50118;53.232;8.252;2023-04-25T01:12:13;20.77;;;4.70;;
58242;SDS011;50118;53.232;8.252;2023-04-25T01:14:39;16.80;;;4.57;;
58242;SDS011;50118;53.232;8.252;2023-04-25T01:17:05;18.85;;;4.97;;
58242;SDS011;50118;53.232;8.252;2023-04-25T01:19:32;20.90;;;5.13;;
58242;SDS011;50118;53.232;8.252;2023-04-25T01:21:58;19.88;;;5.07;;
58242;SDS011;50118;53.232;8.252;2023-04-25T01:24:23;21.67;;;5.40;;
58242;SDS011;50118;53.232;8.252;2023-04-25T01:26:48;15.75;;;4.60;;
58242;SDS011;50118;53.232;8.252;2023-04-25T01:29:16;20.08;;;4.90;;
58242;SDS011;50118;53.232;8.252;2023-04-25T01:31:42;17.33;;;5.25;;
58242;SDS011;50118;53.232;8.252;2023-04-25T01:34:09;20.77;;;5.15;;
58242;SDS011;50118;53.232;8.252;2023-04-25T01:36:35;15.88;;;4.90;;
58242;SDS011;50118;53.232;8.252;2023-04-25T01:39:00;13.82;;;4.63;;
58242;SDS011;50118;53.232;8.252;2023-04-25T01:41:26;24.35;;;5.75;;
58242;SDS011;50118;53.232;8.252;2023-04-25T01:43:52;18.70;;;5.38;;
58242;SDS011;50118;53.232;8.252;2023-04-25T01:46:17;23.08;;;5.30;;
58242;SDS011;50118;53.232;8.252;2023-04-25T01:48:43;22.70;;;5.00;;
58242;SDS011;50118;53.232;8.252;2023-04-25T01:51:08;14.18;;;5.20;;
58242;SDS011;50118;53.232;8.252;2023-04-25T01:53:36;22.73;;;5.85;;
58242;SDS011;50118;53.232;8.252;2023-04-25T01:56:02;20.15;;;5.35;;
58242;SDS011;50118;53.232;8.252;2023-04-25T01:58:27;16.10;;;5.65;;
58242;SDS011;50118;53.232;8.252;2023-04-25T02:00:53;22.08;;;6.05;;
58242;SDS011;50118;53.232;8.252;2023-04-25T02:03:18;21.48;;;5.93;;
58242;SDS011;50118;53.232;8.252;2023-04-25T02:05:44;20.52;;;6.30;;
58242;SDS011;50118;53.232;8.252;2023-04-25T02:08:09;22.45;;;6.00;;
58242;SDS011;50118;53.232;8.252;2023-04-25T02:10:35;18.38;;;5.22;;
58242;SDS011;50118;53.232;8.252;2023-04-25T02:13:00;18.58;;;5.85;;
58242;SDS011;50118;53.232;8.252;2023-04-25T02:15:26;24.65;;;5.88;;
58242;SDS011;50118;53.232;8.252;2023-04-25T02:17:51;20.08;;;5.80;;
58242;SDS011;50118;53.232;8.252;2023-04-25T02:20:20;20.80;;;5.40;;
58242;SDS011;50118;53.232;8.252;2023-04-25T02:22:46;23.48;;;5.60;;
58242;SDS011;50118;53.232;8.252;2023-04-25T02:25:12;21.95;;;5.20;;
58242;SDS011;50118;53.232;8.252;2023-04-25T02:27:37;17.63;;;5.10;;
58242;SDS011;50118;53.232;8.252;2023-04-25T02:30:03;21.23;;;4.63;;
58242;SDS011;50118;53.232;8.252;2023-04-25T02:32:30;23.17;;;4.70;;
58242;SDS011;50118;53.232;8.252;2023-04-25T02:34:55;24.58;;;5.05;;
58242;SDS011;50118;53.232;8.252;2023-04-25T02:37:23;15.63;;;4.53;;
58242;SDS011;50118;53.232;8.252;2023-04-25T02:39:49;15.65;;;4.35;;
58242;SDS011;50118;53.232;8.252;2023-04-25T02:42:14;13.82;;;3.67;;
58242;SDS011;50118;53.232;8.252;2023-04-25T02:44:39;18.50;;;4.82;;
58242;SDS011;50118;53.232;8.252;2023-04-25T02:47:05;19.75;;;4.30;;
58242;SDS011;50118;53.232;8.252;2023-04-25T02:49:30;16.83;;;4.03;;
58242;SDS011;50118;53.232;8.252;2023-04-25T02:51:56;17.80;;;4.18;;
58242;SDS011;50118;53.232;8.252;2023-04-25T02:54:21;17.00;;;3.65;;
58242;SDS011;50118;53.232;8.252;2023-04-25T02:56:46;23.55;;;4.68;;
58242;SDS011;50118;53.232;8.252;2023-04-25T02:59:12;16.85;;;4.03;;
58242;SDS011;50118;53.232;8.252;2023-04-25T03:01:37;17.20;;;3.92;;
58242;SDS011;50118;53.232;8.252;2023-04-25T03:04:03;16.83;;;4.05;;
58242;SDS011;50118;53.232;8.252;2023-04-25T03:06:28;18.13;;;4.55;;
58242;SDS011;50118;53.232;8.252;2023-04-25T03:08:53;18.90;;;3.65;;
58242;SDS011;50118;53.232;8.252;2023-04-25T03:11:19;15.88;;;4.15;;
58242;SDS011;50118;53.232;8.252;2023-04-25T03:13:45;18.58;;;4.10;;
58242;SDS011;50118;53.232;8.252;2023-04-25T03:16:10;15.75;;;3.50;;
58242;SDS011;50118;53.232;8.252;2023-04-25T03:18:36;18.63;;;4.85;;
58242;SDS011;50118;53.232;8.252;2023-04-25T03:21:01;17.08;;;3.97;;
58242;SDS011;50118;53.232;8.252;2023-04-25T03:23:27;16.30;;;3.70;;
58242;SDS011;50118;53.232;8.252;2023-04-25T03:25:53;16.17;;;3.80;;
58242;SDS011;50118;53.232;8.252;2023-04-25T03:28:18;14.82;;;3.85;;
58242;SDS011;50118;53.232;8.252;2023-04-25T03:30:43;20.70;;;4.20;;
58242;SDS011;50118;53.232;8.252;2023-04-25T03:33:09;14.00;;;4.22;;
58242;SDS011;50118;53.232;8.252;2023-04-25T03:35:34;10.45;;;3.90;;
58242;SDS011;50118;53.232;8.252;2023-04-25T03:38:00;15.80;;;3.67;;
58242;SDS011;50118;53.232;8.252;2023-04-25T03:40:25;16.83;;;4.00;;
58242;SDS011;50118;53.232;8.252;2023-04-25T03:42:50;19.60;;;3.78;;
58242;SDS011;50118;53.232;8.252;2023-04-25T03:45:16;12.32;;;3.40;;
58242;SDS011;50118;53.232;8.252;2023-04-25T03:47:41;12.85;;;3.42;;
58242;SDS011;50118;53.232;8.252;2023-04-25T03:50:07;12.35;;;3.60;;
58242;SDS011;50118;53.232;8.252;2023-04-25T03:52:32;13.90;;;3.60;;
58242;SDS011;50118;53.232;8.252;2023-04-25T03:54:58;14.63;;;3.67;;
58242;SDS011;50118;53.232;8.252;2023-04-25T03:57:23;15.07;;;3.50;;
58242;SDS011;50118;53.232;8.252;2023-04-25T03:59:48;14.73;;;3.70;;
58242;SDS011;50118;53.232;8.252;2023-04-25T04:02:14;14.63;;;3.20;;
58242;SDS011;50118;53.232;8.252;2023-04-25T04:04:39;14.52;;;3.30;;
58242;SDS011;50118;53.232;8.252;2023-04-25T04:07:05;13.40;;;3.00;;
58242;SDS011;50118;53.232;8.252;2023-04-25T04:09:30;10.02;;;2.80;;
58242;SDS011;50118;53.232;8.252;2023-04-25T04:11:56;13.77;;;3.17;;
58242;SDS011;50118;53.232;8.252;2023-04-25T04:14:21;14.88;;;3.35;;
58242;SDS011;50118;53.232;8.252;2023-04-25T04:16:46;14.98;;;3.00;;
58242;SDS011;50118;53.232;8.252;2023-04-25T04:19:12;13.05;;;3.20;;
58242;SDS011;50118;53.232;8.252;2023-04-25T04:21:37;12.85;;;2.78;;
58242;SDS011;50118;53.232;8.252;2023-04-25T04:24:03;16.75;;;3.17;;
58242;SDS011;50118;53.232;8.252;2023-04-25T04:26:28;14.55;;;3.35;;
58242;SDS011;50118;53.232;8.252;2023-04-25T04:28:54;12.68;;;2.95;;
58242;SDS011;50118;53.232;8.252;2023-04-25T04:31:20;14.02;;;2.92;;
58242;SDS011;50118;53.232;8.252;2023-04-25T04:33:47;14.98;;;3.03;;
58242;SDS011;50118;53.232;8.252;2023-04-25T04:36:13;13.60;;;3.25;;
58242;SDS011;50118;53.232;8.252;2023-04-25T04:38:39;12.68;;;3.05;;
58242;SDS011;50118;53.232;8.252;2023-04-25T04:41:06;11.80;;;3.05;;
58242;SDS011;50118;53.232;8.252;2023-04-25T04:43:31;13.90;;;3.33;;
58242;SDS011;50118;53.232;8.252;2023-04-25T04:45:58;10.77;;;2.83;;
58242;SDS011;50118;53.232;8.252;2023-04-25T04:48:25;14.45;;;2.88;;
58242;SDS011;50118;53.232;8.252;2023-04-25T04:50:51;11.27;;;3.00;;
58242;SDS011;50118;53.232;8.252;2023-04-25T04:53:17;9.88;;;2.85;;
58242;SDS011;50118;53.232;8.252;2023-04-25T04:55:42;10.05;;;2.80;;
58242;SDS011;50118;53.232;8.252;2023-04-25T04:58:08;12.10;;;2.70;;
58242;SDS011;50118;53.232;8.252;2023-04-25T05:00:34;11.45;;;2.90;;
58242;SDS011;50118;53.232;8.252;2023-04-25T05:02:59;13.90;;;3.17;;
58242;SDS011;50118;53.232;8.252;2023-04-25T05:05:25;15.90;;;2.97;;
58242;SDS011;50118;53.232;8.252;2023-04-25T05:07:50;9.27;;;3.10;;
58242;SDS011;50118;53.232;8.252;2023-04-25T05:10:17;9.95;;;3.28;;
58242;SDS011;50118;53.232;8.252;2023-04-25T05:12:43;12.77;;;3.08;;
58242;SDS011;50118;53.232;8.252;2023-04-25T05:15:09;14.15;;;3.45;;
58242;SDS011;50118;53.232;8.252;2023-04-25T05:17:35;10.93;;;2.35;;
58242;SDS011;50118;53.232;8.252;2023-04-25T05:20:00;11.32;;;2.40;;
58242;SDS011;50118;53.232;8.252;2023-04-25T05:22:26;11.23;;;2.47;;
58242;SDS011;50118;53.232;8.252;2023-04-25T05:24:52;11.90;;;2.45;;
58242;SDS011;50118;53.232;8.252;2023-04-25T05:27:18;11.93;;;2.20;;
58242;SDS011;50118;53.232;8.252;2023-04-25T05:29:43;8.45;;;2.30;;
58242;SDS011;50118;53.232;8.252;2023-04-25T05:32:11;10.30;;;2.55;;
58242;SDS011;50118;53.232;8.252;2023-04-25T05:34:37;8.43;;;2.10;;
58242;SDS011;50118;53.232;8.252;2023-04-25T05:37:02;10.57;;;2.22;;
58242;SDS011;50118;53.232;8.252;2023-04-25T05:39:28;8.68;;;2.50;;
58242;SDS011;50118;53.232;8.252;2023-04-25T05:41:53;10.20;;;2.42;;
58242;SDS011;50118;53.232;8.252;2023-04-25T05:44:18;9.65;;;2.35;;
58242;SDS011;50118;53.232;8.252;2023-04-25T05:46:44;5.13;;;1.90;;
58242;SDS011;50118;53.232;8.252;2023-04-25T05:49:09;10.75;;;2.00;;
58242;SDS011;50118;53.232;8.252;2023-04-25T05:51:35;6.57;;;2.50;;
58242;SDS011;50118;53.232;8.252;2023-04-25T05:54:00;8.50;;;2.22;;
58242;SDS011;50118;53.232;8.252;2023-04-25T05:56:26;8.20;;;2.17;;
58242;SDS011;50118;53.232;8.252;2023-04-25T05:58:51;8.60;;;2.00;;
58242;SDS011;50118;53.232;8.252;2023-04-25T06:01:16;11.48;;;2.53;;
58242;SDS011;50118;53.232;8.252;2023-04-25T06:03:42;8.98;;;2.13;;
58242;SDS011;50118;53.232;8.252;2023-04-25T06:06:08;8.15;;;2.45;;
58242;SDS011;50118;53.232;8.252;2023-04-25T06:08:34;8.80;;;2.10;;
58242;SDS011;50118;53.232;8.252;2023-04-25T06:11:00;7.45;;;2.00;;
58242;SDS011;50118;53.232;8.252;2023-04-25T06:13:26;7.30;;;2.15;;
58242;SDS011;50118;53.232;8.252;2023-04-25T06:15:51;5.35;;;1.60;;
58242;SDS011;50118;53.232;8.252;2023-04-25T06:18:17;8.30;;;2.20;;
58242;SDS011;50118;53.232;8.252;2023-04-25T06:20:42;8.27;;;1.95;;
58242;SDS011;50118;53.232;8.252;2023-04-25T06:23:08;15.02;;;2.97;;
58242;SDS011;50118;53.232;8.252;2023-04-25T06:25:33;8.00;;;1.88;;
58242;SDS011;50118;53.232;8.252;2023-04-25T06:27:58;10.30;;;2.17;;
58242;SDS011;50118;53.232;8.252;2023-04-25T06:30:24;9.02;;;1.95;;
58242;SDS011;50118;53.232;8.252;2023-04-25T06:32:50;6.88;;;1.80;;
58242;SDS011;50118;53.232;8.252;2023-04-25T06:35:19;9.23;;;2.08;;
58242;SDS011;50118;53.232;8.252;2023-04-25T06:37:45;5.90;;;1.83;;
58242;SDS011;50118;53.232;8.252;2023-04-25T06:40:11;8.90;;;2.00;;
58242;SDS011;50118;53.232;8.252;2023-04-25T06:42:36;10.38;;;1.98;;
58242;SDS011;50118;53.232;8.252;2023-04-25T06:45:02;7.38;;;1.95;;
58242;SDS011;50118;53.232;8.252;2023-04-25T06:47:28;7.63;;;2.25;;
58242;SDS011;50118;53.232;8.252;2023-04-25T06:49:54;5.90;;;1.65;;
58242;SDS011;50118;53.232;8.252;2023-04-25T06:52:20;8.05;;;2.00;;
58242;SDS011;50118;53.232;8.252;2023-04-25T06:54:45;7.47;;;1.90;;
58242;SDS011;50118;53.232;8.252;2023-04-25T06:57:11;6.57;;;1.65;;
58242;SDS011;50118;53.232;8.252;2023-04-25T06:59:36;4.88;;;1.60;;
58242;SDS011;50118;53.232;8.252;2023-04-25T07:02:02;7.55;;;2.28;;
58242;SDS011;50118;53.232;8.252;2023-04-25T07:04:28;9.70;;;1.85;;
58242;SDS011;50118;53.232;8.252;2023-04-25T07:06:54;10.10;;;2.13;;
58242;SDS011;50118;53.232;8.252;2023-04-25T07:09:20;7.60;;;1.80;;
58242;SDS011;50118;53.232;8.252;2023-04-25T07:11:45;5.70;;;1.60;;
58242;SDS011;50118;53.232;8.252;2023-04-25T07:14:11;9.82;;;1.75;;
58242;SDS011;50118;53.232;8.252;2023-04-25T07:16:36;6.30;;;1.48;;
58242;SDS011;50118;53.232;8.252;2023-04-25T07:19:02;7.97;;;1.63;;
58242;SDS011;50118;53.232;8.252;2023-04-25T07:21:27;9.80;;;2.30;;
58242;SDS011;50118;53.232;8.252;2023-04-25T07:23:53;6.97;;;1.75;;
58242;SDS011;50118;53.232;8.252;2023-04-25T07:26:18;8.48;;;1.80;;
58242;SDS011;50118;53.232;8.252;2023-04-25T07:28:44;9.90;;;1.90;;
58242;SDS011;50118;53.232;8.252;2023-04-25T07:31:09;7.32;;;1.70;;
58242;SDS011;50118;53.232;8.252;2023-04-25T07:33:35;6.15;;;1.77;;
58242;SDS011;50118;53.232;8.252;2023-04-25T07:36:00;9.77;;;1.90;;
58242;SDS011;50118;53.232;8.252;2023-04-25T07:38:26;6.10;;;1.63;;
58242;SDS011;50118;53.232;8.252;2023-04-25T07:40:51;6.30;;;1.75;;
58242;SDS011;50118;53.232;8.252;2023-04-25T07:43:17;6.30;;;1.90;;
58242;SDS011;50118;53.232;8.252;2023-04-25T07:45:42;5.80;;;1.40;;
58242;SDS011;50118;53.232;8.252;2023-04-25T07:48:11;9.32;;;1.63;;
58242;SDS011;50118;53.232;8.252;2023-04-25T07:50:41;6.25;;;1.60;;
58242;SDS011;50118;53.232;8.252;2023-04-25T07:53:07;6.57;;;1.75;;
58242;SDS011;50118;53.232;8.252;2023-04-25T07:55:32;7.22;;;1.50;;
58242;SDS011;50118;53.232;8.252;2023-04-25T07:57:58;5.78;;;1.60;;
58242;SDS011;50118;53.232;8.252;2023-04-25T08:00:23;6.20;;;1.50;;
58242;SDS011;50118;53.232;8.252;2023-04-25T08:02:48;3.67;;;1.48;;
58242;SDS011;50118;53.232;8.252;2023-04-25T08:05:15;6.25;;;1.20;;
58242;SDS011;50118;53.232;8.252;2023-04-25T08:07:41;4.25;;;1.20;;
58242;SDS011;50118;53.232;8.252;2023-04-25T08:10:07;4.80;;;1.40;;
58242;SDS011;50118;53.232;8.252;2023-04-25T08:12:33;4.45;;;1.55;;
58242;SDS011;50118;53.232;8.252;2023-04-25T08:15:00;5.45;;;1.42;;
58242;SDS011;50118;53.232;8.252;2023-04-25T08:17:26;5.35;;;1.38;;
58242;SDS011;50118;53.232;8.252;2023-04-25T08:19:51;6.10;;;1.48;;
58242;SDS011;50118;53.232;8.252;2023-04-25T08:22:17;5.82;;;1.52;;
58242;SDS011;50118;53.232;8.252;2023-04-25T08:24:42;7.30;;;1.40;;
58242;SDS011;50118;53.232;8.252;2023-04-25T08:27:09;7.55;;;1.45;;
58242;SDS011;50118;53.232;8.252;2023-04-25T08:29:34;6.50;;;1.73;;
58242;SDS011;50118;53.232;8.252;2023-04-25T08:32:00;5.90;;;1.40;;
58242;SDS011;50118;53.232;8.252;2023-04-25T08:34:25;7.30;;;1.80;;
58242;SDS011;50118;53.232;8.252;2023-04-25T08:36:51;5.35;;;1.45;;
58242;SDS011;50118;53.232;8.252;2023-04-25T08:39:17;7.47;;;1.77;;
58242;SDS011;50118;53.232;8.252;2023-04-25T08:41:42;5.53;;;1.35;;
58242;SDS011;50118;53.232;8.252;2023-04-25T08:44:10;2.67;;;1.00;;
58242;SDS011;50118;53.232;8.252;2023-04-25T08:46:37;4.65;;;1.30;;
58242;SDS011;50118;53.232;8.252;2023-04-25T08:49:05;4.97;;;1.40;;
58242;SDS011;50118;53.232;8.252;2023-04-25T08:51:32;4.53;;;1.30;;
58242;SDS011;50118;53.232;8.252;2023-04-25T08:54:08;3.17;;;1.00;;
58242;SDS011;50118;53.232;8.252;2023-04-25T08:56:36;5.97;;;1.25;;
58242;SDS011;50118;53.232;8.252;2023-04-25T08:59:03;5.82;;;1.40;;
58242;SDS011;50118;53.232;8.252;2023-04-25T09:01:29;5.78;;;1.23;;
58242;SDS011;50118;53.232;8.252;2023-04-25T09:03:57;4.55;;;1.48;;
58242;SDS011;50118;53.232;8.252;2023-04-25T09:06:23;5.70;;;1.83;;
58242;SDS011;50118;53.232;8.252;2023-04-25T09:08:49;7.38;;;1.60;;
58242;SDS011;50118;53.232;8.252;2023-04-25T09:11:15;6.35;;;1.42;;
58242;SDS011;50118;53.232;8.252;2023-04-25T09:13:40;6.60;;;1.27;;
58242;SDS011;50118;53.232;8.252;2023-04-25T09:16:06;9.05;;;1.85;;
58242;SDS011;50118;53.232;8.252;2023-04-25T09:18:32;6.50;;;1.40;;
58242;SDS011;50118;53.232;8.252;2023-04-25T09:23:46;4.32;;;1.40;;
58242;SDS011;50118;53.232;8.252;2023-04-25T09:26:17;6.45;;;1.40;;
58242;SDS011;50118;53.232;8.252;2023-04-25T09:28:44;4.47;;;1.25;;
58242;SDS011;50118;53.232;8.252;2023-04-25T09:31:10;8.27;;;1.40;;
58242;SDS011;50118;53.232;8.252;2023-04-25T09:33:36;4.60;;;1.52;;
58242;SDS011;50118;53.232;8.252;2023-04-25T09:36:03;5.72;;;1.20;;
58242;SDS011;50118;53.232;8.252;2023-04-25T09:38:31;5.88;;;1.35;;
58242;SDS011;50118;53.232;8.252;2023-04-25T09:40:57;4.75;;;1.58;;
58242;SDS011;50118;53.232;8.252;2023-04-25T09:43:23;5.25;;;1.52;;
58242;SDS011;50118;53.232;8.252;2023-04-25T09:45:50;4.47;;;1.55;;
58242;SDS011;50118;53.232;8.252;2023-04-25T09:48:18;4.20;;;1.40;;
58242;SDS011;50118;53.232;8.252;2023-04-25T09:51:03;5.50;;;1.52;;
58242;SDS011;50118;53.232;8.252;2023-04-25T09:53:29;3.17;;;1.23;;
58242;SDS011;50118;53.232;8.252;2023-04-25T09:55:57;4.82;;;1.70;;
58242;SDS011;50118;53.232;8.252;2023-04-25T09:58:25;4.88;;;1.40;;
58242;SDS011;50118;53.232;8.252;2023-04-25T10:00:53;4.22;;;1.20;;
58242;SDS011;50118;53.232;8.252;2023-04-25T10:03:24;5.45;;;1.17;;
58242;SDS011;50118;53.232;8.252;2023-04-25T10:05:51;4.82;;;1.40;;
58242;SDS011;50118;53.232;8.252;2023-04-25T10:08:18;4.85;;;1.30;;
58242;SDS011;50118;53.232;8.252;2023-04-25T10:10:45;8.45;;;1.67;;
58242;SDS011;50118;53.232;8.252;2023-04-25T10:13:12;6.88;;;1.30;;
58242;SDS011;50118;53.232;8.252;2023-04-25T10:15:39;6.68;;;1.50;;
58242;SDS011;50118;53.232;8.252;2023-04-25T10:18:06;3.38;;;1.23;;
58242;SDS011;50118;53.232;8.252;2023-04-25T10:20:32;5.25;;;1.42;;
58242;SDS011;50118;53.232;8.252;2023-04-25T10:22:59;6.10;;;1.40;;
58242;SDS011;50118;53.232;8.252;2023-04-25T10:25:40;4.85;;;1.30;;
58242;SDS011;50118;53.232;8.252;2023-04-25T10:28:06;6.03;;;1.40;;
58242;SDS011;50118;53.232;8.252;2023-04-25T10:30:31;5.88;;;1.30;;
58242;SDS011;50118;53.232;8.252;2023-04-25T10:32:58;6.40;;;1.55;;
58242;SDS011;50118;53.232;8.252;2023-04-25T10:35:28;4.68;;;1.20;;
58242;SDS011;50118;53.232;8.252;2023-04-25T10:37:58;7.63;;;1.42;;
58242;SDS011;50118;53.232;8.252;2023-04-25T10:40:30;6.93;;;1.55;;
58242;SDS011;50118;53.232;8.252;2023-04-25T10:43:32;7.53;;;1.58;;
58242;SDS011;50118;53.232;8.252;2023-04-25T10:49:00;6.82;;;1.40;;
58242;SDS011;50118;53.232;8.252;2023-04-25T10:51:34;6.38;;;1.67;;
58242;SDS011;50118;53.232;8.252;2023-04-25T10:54:05;4.95;;;1.30;;
58242;SDS011;50118;53.232;8.252;2023-04-25T10:56:41;4.25;;;1.40;;
58242;SDS011;50118;53.232;8.252;2023-04-25T10:59:11;7.45;;;1.65;;
58242;SDS011;50118;53.232;8.252;2023-04-25T11:01:42;4.22;;;1.40;;
58242;SDS011;50118;53.232;8.252;2023-04-25T11:04:30;4.45;;;1.42;;
58242;SDS011;50118;53.232;8.252;2023-04-25T11:09:43;4.03;;;1.40;;
58242;SDS011;50118;53.232;8.252;2023-04-25T11:12:10;4.78;;;1.42;;
58242;SDS011;50118;53.232;8.252;2023-04-25T11:14:39;5.18;;;1.35;;
58242;SDS011;50118;53.232;8.252;2023-04-25T11:17:04;7.00;;;1.60;;
58242;SDS011;50118;53.232;8.252;2023-04-25T11:19:31;5.32;;;1.77;;
58242;SDS011;50118;53.232;8.252;2023-04-25T11:22:00;8.70;;;2.08;;
58242;SDS011;50118;53.232;8.252;2023-04-25T11:24:27;4.90;;;1.30;;
58242;SDS011;50118;53.232;8.252;2023-04-25T11:26:57;8.18;;;1.50;;
58242;SDS011;50118;53.232;8.252;2023-04-25T11:29:26;3.75;;;1.10;;
58242;SDS011;50118;53.232;8.252;2023-04-25T11:31:52;5.15;;;1.48;;
58242;SDS011;50118;53.232;8.252;2023-04-25T11:34:18;3.78;;;1.20;;
58242;SDS011;50118;53.232;8.252;2023-04-25T11:36:44;3.17;;;1.20;;
58242;SDS011;50118;53.232;8.252;2023-04-25T11:39:10;4.18;;;1.40;;
58242;SDS011;50118;53.232;8.252;2023-04-25T11:41:37;6.65;;;1.80;;
58242;SDS011;50118;53.232;8.252;2023-04-25T11:44:02;5.75;;;1.75;;
58242;SDS011;50118;53.232;8.252;2023-04-25T11:46:28;7.97;;;2.03;;
58242;SDS011;50118;53.232;8.252;2023-04-25T11:48:54;7.55;;;1.73;;
58242;SDS011;50118;53.232;8.252;2023-04-25T11:51:20;5.47;;;1.30;;
58242;SDS011;50118;53.232;8.252;2023-04-25T11:53:46;5.88;;;1.40;;
58242;SDS011;50118;53.232;8.252;2023-04-25T11:56:11;6.45;;;1.52;;
58242;SDS011;50118;53.232;8.252;2023-04-25T11:58:53;8.13;;;1.75;;
58242;SDS011;50118;53.232;8.252;2023-04-25T12:01:33;5.13;;;1.40;;
58242;SDS011;50118;53.232;8.252;2023-04-25T12:06:41;5.88;;;1.60;;
58242;SDS011;50118;53.232;8.252;2023-04-25T12:09:10;6.20;;;1.40;;
58242;SDS011;50118;53.232;8.252;2023-04-25T12:11:41;4.88;;;1.40;;
58242;SDS011;50118;53.232;8.252;2023-04-25T12:14:08;4.43;;;1.50;;
58242;SDS011;50118;53.232;8.252;2023-04-25T12:16:45;8.23;;;1.85;;
58242;SDS011;50118;53.232;8.252;2023-04-25T12:19:15;4.85;;;1.50;;
58242;SDS011;50118;53.232;8.252;2023-04-25T12:21:42;6.72;;;1.70;;
58242;SDS011;50118;53.232;8.252;2023-04-25T12:24:15;2.67;;;1.40;;
58242;SDS011;50118;53.232;8.252;2023-04-25T12:26:54;5.63;;;1.33;;
58242;SDS011;50118;53.232;8.252;2023-04-25T12:29:24;3.78;;;1.38;;
58242;SDS011;50118;53.232;8.252;2023-04-25T12:31:52;5.75;;;1.50;;
58242;SDS011;50118;53.232;8.252;2023-04-25T12:34:19;3.95;;;1.10;;
58242;SDS011;50118;53.232;8.252;2023-04-25T12:36:46;3.28;;;1.20;;
58242;SDS011;50118;53.232;8.252;2023-04-25T12:39:21;4.68;;;1.25;;
58242;SDS011;50118;53.232;8.252;2023-04-25T12:41:48;3.55;;;1.17;;
58242;SDS011;50118;53.232;8.252;2023-04-25T12:44:14;4.75;;;1.25;;
58242;SDS011;50118;53.232;8.252;2023-04-25T12:46:40;4.25;;;1.42;;
58242;SDS011;50118;53.232;8.252;2023-04-25T12:49:06;5.78;;;1.27;;
58242;SDS011;50118;53.232;8.252;2023-04-25T12:51:33;5.18;;;1.30;;
58242;SDS011;50118;53.232;8.252;2023-04-25T12:54:00;3.38;;;1.33;;
58242;SDS011;50118;53.232;8.252;2023-04-25T12:56:26;2.35;;;0.95;;
58242;SDS011;50118;53.232;8.252;2023-04-25T12:58:52;3.03;;;0.90;;
58242;SDS011;50118;53.232;8.252;2023-04-25T13:01:19;4.07;;;0.90;;
58242;SDS011;50118;53.232;8.252;2023-04-25T13:03:45;5.43;;;1.50;;
58242;SDS011;50118;53.232;8.252;2023-04-25T13:06:11;4.78;;;1.20;;
58242;SDS011;50118;53.232;8.252;2023-04-25T13:08:37;4.47;;;1.10;;
58242;SDS011;50118;53.232;8.252;2023-04-25T13:11:03;4.28;;;0.95;;
58242;SDS011;50118;53.232;8.252;2023-04-25T13:13:30;6.68;;;1.40;;
58242;SDS011;50118;53.232;8.252;2023-04-25T13:15:56;6.75;;;1.42;;
58242;SDS011;50118;53.232;8.252;2023-04-25T13:18:22;5.25;;;1.50;;
58242;SDS011;50118;53.232;8.252;2023-04-25T13:20:51;4.50;;;1.25;;
58242;SDS011;50118;53.232;8.252;2023-04-25T13:23:17;5.22;;;1.50;;
58242;SDS011;50118;53.232;8.252;2023-04-25T13:25:42;4.88;;;1.30;;
58242;SDS011;50118;53.232;8.252;2023-04-25T13:28:08;7.18;;;1.27;;
58242;SDS011;50118;53.232;8.252;2023-04-25T13:30:33;4.00;;;1.25;;
58242;SDS011;50118;53.232;8.252;2023-04-25T13:32:59;7.45;;;1.67;;
58242;SDS011;50118;53.232;8.252;2023-04-25T13:35:28;4.95;;;1.45;;
58242;SDS011;50118;53.232;8.252;2023-04-25T13:37:56;5.80;;;1.85;;
58242;SDS011;50118;53.232;8.252;2023-04-25T13:40:21;6.60;;;1.35;;
58242;SDS011;50118;53.232;8.252;2023-04-25T13:42:47;3.85;;;1.58;;
58242;SDS011;50118;53.232;8.252;2023-04-25T13:45:13;6.85;;;1.60;;
58242;SDS011;50118;53.232;8.252;2023-04-25T13:47:39;4.60;;;1.33;;
58242;SDS011;50118;53.232;8.252;2023-04-25T13:50:05;6.60;;;1.45;;
58242;SDS011;50118;53.232;8.252;2023-04-25T13:52:32;5.40;;;1.50;;
58242;SDS011;50118;53.232;8.252;2023-04-25T13:54:57;6.25;;;1.60;;
58242;SDS011;50118;53.232;8.252;2023-04-25T13:57:23;2.92;;;1.30;;
58242;SDS011;50118;53.232;8.252;2023-04-25T13:59:49;6.00;;;1.52;;
58242;SDS011;50118;53.232;8.252;2023-04-25T14:02:15;5.80;;;1.70;;
58242;SDS011;50118;53.232;8.252;2023-04-25T14:04:41;3.88;;;1.50;;
58242;SDS011;50118;53.232;8.252;2023-04-25T14:07:07;6.15;;;1.85;;
58242;SDS011;50118;53.232;8.252;2023-04-25T14:09:33;5.30;;;1.50;;
58242;SDS011;50118;53.232;8.252;2023-04-25T14:11:59;4.70;;;1.70;;
58242;SDS011;50118;53.232;8.252;2023-04-25T14:14:25;5.65;;;1.55;;
58242;SDS011;50118;53.232;8.252;2023-04-25T14:16:50;8.73;;;2.00;;
58242;SDS011;50118;53.232;8.252;2023-04-25T14:19:18;5.18;;;1.70;;
58242;SDS011;50118;53.232;8.252;2023-04-25T14:21:44;6.82;;;1.70;;
58242;SDS011;50118;53.232;8.252;2023-04-25T14:24:13;6.20;;;2.10;;
58242;SDS011;50118;53.232;8.252;2023-04-25T14:26:41;6.05;;;1.90;;
58242;SDS011;50118;53.232;8.252;2023-04-25T14:29:07;10.38;;;2.10;;
58242;SDS011;50118;53.232;8.252;2023-04-25T14:31:33;7.05;;;2.13;;
58242;SDS011;50118;53.232;8.252;2023-04-25T14:34:00;7.65;;;1.65;;
58242;SDS011;50118;53.232;8.252;2023-04-25T14:36:26;5.80;;;1.50;;
58242;SDS011;50118;53.232;8.252;2023-04-25T14:38:52;4.35;;;1.30;;
58242;SDS011;50118;53.232;8.252;2023-04-25T14:41:18;7.13;;;1.70;;
58242;SDS011;50118;53.232;8.252;2023-04-25T14:43:43;4.35;;;1.40;;
58242;SDS011;50118;53.232;8.252;2023-04-25T14:46:10;5.20;;;1.70;;
58242;SDS011;50118;53.232;8.252;2023-04-25T14:48:35;5.60;;;1.45;;
58242;SDS011;50118;53.232;8.252;2023-04-25T14:51:01;7.32;;;1.40;;